sensor_id;sensor_type;location;lat;lon;timestamp;P1;durP1;ratioP1;P2;durP2;ratioP2
78618;SDS011;67941;52.506;5.470;2023-11-21T00:00:42;0.32;;;0.10;;
78618;SDS011;67941;52.506;5.470;2023-11-21T00:03:11;0.50;;;0.17;;
78618;SDS011;67941;52.506;5.470;2023-11-21T00:05:40;1.67;;;0.43;;
78618;SDS011;67941;52.506;5.470;2023-11-21T00:08:09;0.98;;;0.13;;
78618;SDS011;67941;52.506;5.470;2023-11-21T00:10:59;2.28;;;0.17;;
78618;SDS011;67941;52.506;5.470;2023-11-21T00:13:28;1.42;;;0.32;;
78618;SDS011;67941;52.506;5.470;2023-11-21T00:15:57;1.20;;;0.35;;
78618;SDS011;67941;52.506;5.470;2023-11-21T00:18:26;1.77;;;0.47;;
78618;SDS011;67941;52.506;5.470;2023-11-21T00:20:55;1.75;;;0.35;;
78618;SDS011;67941;52.506;5.470;2023-11-21T00:23:24;0.98;;;0.32;;
78618;SDS011;67941;52.506;5.470;2023-11-21T00:25:53;1.58;;;0.35;;
78618;SDS011;67941;52.506;5.470;2023-11-21T00:28:25;1.15;;;0.32;;
78618;SDS011;67941;52.506;5.470;2023-11-21T00:30:55;1.45;;;0.38;;
78618;SDS011;67941;52.506;5.470;2023-11-21T00:33:24;2.72;;;0.63;;
78618;SDS011;67941;52.506;5.470;2023-11-21T00:35:53;1.92;;;0.65;;
78618;SDS011;67941;52.506;5.470;2023-11-21T00:38:22;1.90;;;0.47;;
78618;SDS011;67941;52.506;5.470;2023-11-21T00:40:50;2.63;;;0.45;;
78618;SDS011;67941;52.506;5.470;2023-11-21T00:43:21;1.80;;;0.40;;
78618;SDS011;67941;52.506;5.470;2023-11-21T00:45:53;2.80;;;0.50;;
78618;SDS011;67941;52.506;5.470;2023-11-21T00:48:21;1.30;;;0.30;;
78618;SDS011;67941;52.506;5.470;2023-11-21T00:50:50;1.48;;;0.40;;
78618;SDS011;67941;52.506;5.470;2023-11-21T00:53:21;1.30;;;0.30;;
78618;SDS011;67941;52.506;5.470;2023-11-21T00:55:50;2.38;;;0.45;;
78618;SDS011;67941;52.506;5.470;2023-11-21T00:58:25;2.30;;;0.45;;
78618;SDS011;67941;52.506;5.470;2023-11-21T01:00:53;2.28;;;0.70;;
78618;SDS011;67941;52.506;5.470;2023-11-21T01:03:23;1.30;;;0.30;;
78618;SDS011;67941;52.506;5.470;2023-11-21T01:05:52;1.23;;;0.30;;
78618;SDS011;67941;52.506;5.470;2023-11-21T01:08:21;2.90;;;0.30;;
78618;SDS011;67941;52.506;5.470;2023-11-21T01:10:50;0.90;;;0.35;;
78618;SDS011;67941;52.506;5.470;2023-11-21T01:13:19;1.23;;;0.28;;
78618;SDS011;67941;52.506;5.470;2023-11-21T01:15:50;1.73;;;0.35;;
78618;SDS011;67941;52.506;5.470;2023-11-21T01:18:19;2.63;;;0.38;;
78618;SDS011;67941;52.506;5.470;2023-11-21T01:20:50;1.15;;;0.22;;
78618;SDS011;67941;52.506;5.470;2023-11-21T01:23:20;2.45;;;0.38;;
78618;SDS011;67941;52.506;5.470;2023-11-21T01:25:48;1.60;;;0.57;;
78618;SDS011;67941;52.506;5.470;2023-11-21T01:28:17;1.48;;;0.32;;
78618;SDS011;67941;52.506;5.470;2023-11-21T01:30:47;1.75;;;0.32;;
78618;SDS011;67941;52.506;5.470;2023-11-21T01:33:18;2.03;;;0.30;;
78618;SDS011;67941;52.506;5.470;2023-11-21T01:35:47;1.13;;;0.45;;
78618;SDS011;67941;52.506;5.470;2023-11-21T01:38:18;3.10;;;0.43;;
78618;SDS011;67941;52.506;5.470;2023-11-21T01:40:47;2.38;;;0.40;;
78618;SDS011;67941;52.506;5.470;2023-11-21T01:43:16;1.60;;;0.52;;
78618;SDS011;67941;52.506;5.470;2023-11-21T01:45:45;1.65;;;0.52;;
78618;SDS011;67941;52.506;5.470;2023-11-21T01:48:14;2.00;;;0.93;;
78618;SDS011;67941;52.506;5.470;2023-11-21T01:50:45;4.97;;;0.80;;
78618;SDS011;67941;52.506;5.470;2023-11-21T01:53:14;1.08;;;0.93;;
78618;SDS011;67941;52.506;5.470;2023-11-21T01:55:44;2.55;;;0.45;;
78618;SDS011;67941;52.506;5.470;2023-11-21T01:58:14;3.78;;;0.73;;
78618;SDS011;67941;52.506;5.470;2023-11-21T02:00:45;2.58;;;0.40;;
78618;SDS011;67941;52.506;5.470;2023-11-21T02:03:14;1.00;;;0.22;;
78618;SDS011;67941;52.506;5.470;2023-11-21T02:05:45;1.17;;;0.20;;
78618;SDS011;67941;52.506;5.470;2023-11-21T02:08:14;1.55;;;0.50;;
78618;SDS011;67941;52.506;5.470;2023-11-21T02:10:44;1.15;;;0.28;;
78618;SDS011;67941;52.506;5.470;2023-11-21T02:13:13;2.30;;;0.50;;
78618;SDS011;67941;52.506;5.470;2023-11-21T02:15:42;2.63;;;0.32;;
78618;SDS011;67941;52.506;5.470;2023-11-21T02:18:13;0.57;;;0.13;;
78618;SDS011;67941;52.506;5.470;2023-11-21T02:20:45;1.10;;;0.30;;
78618;SDS011;67941;52.506;5.470;2023-11-21T02:23:17;1.45;;;0.32;;
78618;SDS011;67941;52.506;5.470;2023-11-21T02:25:46;1.52;;;0.90;;
78618;SDS011;67941;52.506;5.470;2023-11-21T02:28:15;2.53;;;0.50;;
78618;SDS011;67941;52.506;5.470;2023-11-21T02:30:52;1.92;;;0.30;;
78618;SDS011;67941;52.506;5.470;2023-11-21T02:33:23;2.00;;;0.30;;
78618;SDS011;67941;52.506;5.470;2023-11-21T02:35:52;0.98;;;0.20;;
78618;SDS011;67941;52.506;5.470;2023-11-21T02:38:23;1.30;;;0.63;;
78618;SDS011;67941;52.506;5.470;2023-11-21T02:40:52;1.23;;;0.30;;
78618;SDS011;67941;52.506;5.470;2023-11-21T02:43:21;1.05;;;0.20;;
78618;SDS011;67941;52.506;5.470;2023-11-21T02:45:50;1.08;;;0.13;;
78618;SDS011;67941;52.506;5.470;2023-11-21T02:48:19;1.25;;;0.30;;
78618;SDS011;67941;52.506;5.470;2023-11-21T02:50:49;2.53;;;0.47;;
78618;SDS011;67941;52.506;5.470;2023-11-21T02:53:18;4.53;;;1.20;;
78618;SDS011;67941;52.506;5.470;2023-11-21T02:55:52;1.83;;;0.57;;
78618;SDS011;67941;52.506;5.470;2023-11-21T02:58:21;2.08;;;0.32;;
78618;SDS011;67941;52.506;5.470;2023-11-21T03:00:50;2.03;;;0.40;;
78618;SDS011;67941;52.506;5.470;2023-11-21T03:03:20;2.50;;;0.52;;
78618;SDS011;67941;52.506;5.470;2023-11-21T03:05:50;4.93;;;0.52;;
78618;SDS011;67941;52.506;5.470;2023-11-21T03:08:19;3.22;;;0.60;;
78618;SDS011;67941;52.506;5.470;2023-11-21T03:10:47;3.78;;;0.70;;
78618;SDS011;67941;52.506;5.470;2023-11-21T03:13:19;1.40;;;0.43;;
78618;SDS011;67941;52.506;5.470;2023-11-21T03:15:48;1.60;;;0.30;;
78618;SDS011;67941;52.506;5.470;2023-11-21T03:18:18;0.52;;;0.10;;
78618;SDS011;67941;52.506;5.470;2023-11-21T03:20:47;0.95;;;0.22;;
78618;SDS011;67941;52.506;5.470;2023-11-21T03:23:16;1.45;;;0.47;;
78618;SDS011;67941;52.506;5.470;2023-11-21T03:25:45;2.33;;;0.50;;
78618;SDS011;67941;52.506;5.470;2023-11-21T03:28:14;1.98;;;0.30;;
78618;SDS011;67941;52.506;5.470;2023-11-21T03:30:45;3.55;;;0.38;;
78618;SDS011;67941;52.506;5.470;2023-11-21T03:33:14;2.08;;;0.30;;
78618;SDS011;67941;52.506;5.470;2023-11-21T03:35:43;1.98;;;0.52;;
78618;SDS011;67941;52.506;5.470;2023-11-21T03:38:12;1.05;;;0.40;;
78618;SDS011;67941;52.506;5.470;2023-11-21T03:40:41;0.73;;;0.25;;
78618;SDS011;67941;52.506;5.470;2023-11-21T03:43:10;2.10;;;0.60;;
78618;SDS011;67941;52.506;5.470;2023-11-21T03:45:39;4.78;;;0.90;;
78618;SDS011;67941;52.506;5.470;2023-11-21T03:48:12;3.35;;;1.08;;
78618;SDS011;67941;52.506;5.470;2023-11-21T03:50:41;5.78;;;1.33;;
78618;SDS011;67941;52.506;5.470;2023-11-21T03:53:10;3.10;;;0.93;;
78618;SDS011;67941;52.506;5.470;2023-11-21T03:55:39;4.03;;;0.60;;
78618;SDS011;67941;52.506;5.470;2023-11-21T03:58:09;2.05;;;0.52;;
78618;SDS011;67941;52.506;5.470;2023-11-21T04:00:38;4.45;;;0.90;;
78618;SDS011;67941;52.506;5.470;2023-11-21T04:03:06;4.45;;;0.90;;
78618;SDS011;67941;52.506;5.470;2023-11-21T04:05:38;5.47;;;0.50;;
78618;SDS011;67941;52.506;5.470;2023-11-21T04:08:07;3.58;;;0.80;;
78618;SDS011;67941;52.506;5.470;2023-11-21T04:10:36;2.88;;;0.73;;
78618;SDS011;67941;52.506;5.470;2023-11-21T04:13:05;3.35;;;0.68;;
78618;SDS011;67941;52.506;5.470;2023-11-21T04:15:34;3.63;;;0.68;;
78618;SDS011;67941;52.506;5.470;2023-11-21T04:18:03;4.68;;;1.02;;
78618;SDS011;67941;52.506;5.470;2023-11-21T04:20:31;3.83;;;1.00;;
78618;SDS011;67941;52.506;5.470;2023-11-21T04:23:03;1.58;;;0.30;;
78618;SDS011;67941;52.506;5.470;2023-11-21T04:25:32;2.15;;;0.50;;
78618;SDS011;67941;52.506;5.470;2023-11-21T04:28:00;2.58;;;0.57;;
78618;SDS011;67941;52.506;5.470;2023-11-21T04:30:29;1.55;;;0.40;;
78618;SDS011;67941;52.506;5.470;2023-11-21T04:32:58;1.65;;;0.17;;
78618;SDS011;67941;52.506;5.470;2023-11-21T04:35:28;1.15;;;0.38;;
78618;SDS011;67941;52.506;5.470;2023-11-21T04:37:57;1.70;;;0.43;;
78618;SDS011;67941;52.506;5.470;2023-11-21T04:40:28;1.17;;;0.38;;
78618;SDS011;67941;52.506;5.470;2023-11-21T04:42:57;4.18;;;0.55;;
78618;SDS011;67941;52.506;5.470;2023-11-21T04:45:26;1.27;;;0.30;;
78618;SDS011;67941;52.506;5.470;2023-11-21T04:47:55;0.90;;;0.40;;
78618;SDS011;67941;52.506;5.470;2023-11-21T04:50:24;1.98;;;0.20;;
78618;SDS011;67941;52.506;5.470;2023-11-21T04:52:54;2.42;;;0.55;;
78618;SDS011;67941;52.506;5.470;2023-11-21T04:55:22;1.58;;;0.30;;
78618;SDS011;67941;52.506;5.470;2023-11-21T04:57:56;1.30;;;0.32;;
78618;SDS011;67941;52.506;5.470;2023-11-21T05:00:24;0.60;;;0.20;;
78618;SDS011;67941;52.506;5.470;2023-11-21T05:02:53;1.20;;;0.22;;
78618;SDS011;67941;52.506;5.470;2023-11-21T05:05:22;1.15;;;0.10;;
78618;SDS011;67941;52.506;5.470;2023-11-21T05:07:51;0.63;;;0.10;;
78618;SDS011;67941;52.506;5.470;2023-11-21T05:10:20;2.35;;;0.47;;
78618;SDS011;67941;52.506;5.470;2023-11-21T05:12:49;3.25;;;0.65;;
78618;SDS011;67941;52.506;5.470;2023-11-21T05:15:21;1.00;;;0.32;;
78618;SDS011;67941;52.506;5.470;2023-11-21T05:17:50;4.10;;;0.60;;
78618;SDS011;67941;52.506;5.470;2023-11-21T05:20:19;2.22;;;0.47;;
78618;SDS011;67941;52.506;5.470;2023-11-21T05:22:49;1.38;;;0.20;;
78618;SDS011;67941;52.506;5.470;2023-11-21T05:25:18;2.10;;;0.32;;
78618;SDS011;67941;52.506;5.470;2023-11-21T05:27:47;3.80;;;0.43;;
78618;SDS011;67941;52.506;5.470;2023-11-21T05:30:16;1.90;;;0.45;;
78618;SDS011;67941;52.506;5.470;2023-11-21T05:32:47;2.13;;;0.40;;
78618;SDS011;67941;52.506;5.470;2023-11-21T05:35:16;2.85;;;0.55;;
78618;SDS011;67941;52.506;5.470;2023-11-21T05:37:46;3.05;;;0.30;;
78618;SDS011;67941;52.506;5.470;2023-11-21T05:40:15;4.03;;;0.32;;
78618;SDS011;67941;52.506;5.470;2023-11-21T05:42:44;1.85;;;0.20;;
78618;SDS011;67941;52.506;5.470;2023-11-21T05:47:59;2.25;;;0.40;;
78618;SDS011;67941;52.506;5.470;2023-11-21T05:52:58;1.95;;;0.50;;
78618;SDS011;67941;52.506;5.470;2023-11-21T05:55:28;0.85;;;0.10;;
78618;SDS011;67941;52.506;5.470;2023-11-21T05:57:56;0.98;;;0.32;;
78618;SDS011;67941;52.506;5.470;2023-11-21T06:00:25;1.65;;;0.10;;
78618;SDS011;67941;52.506;5.470;2023-11-21T06:02:54;1.63;;;0.30;;
78618;SDS011;67941;52.506;5.470;2023-11-21T06:05:26;1.15;;;0.20;;
78618;SDS011;67941;52.506;5.470;2023-11-21T06:10:27;1.77;;;0.30;;
78618;SDS011;67941;52.506;5.470;2023-11-21T06:12:56;2.15;;;0.20;;
78618;SDS011;67941;52.506;5.470;2023-11-21T06:15:25;1.88;;;0.17;;
78618;SDS011;67941;52.506;5.470;2023-11-21T06:17:54;0.70;;;0.20;;
78618;SDS011;67941;52.506;5.470;2023-11-21T06:20:26;0.60;;;0.20;;
78618;SDS011;67941;52.506;5.470;2023-11-21T06:22:55;1.25;;;0.38;;
78618;SDS011;67941;52.506;5.470;2023-11-21T06:25:28;0.70;;;0.20;;
78618;SDS011;67941;52.506;5.470;2023-11-21T06:27:58;1.58;;;0.20;;
78618;SDS011;67941;52.506;5.470;2023-11-21T06:30:27;2.53;;;0.50;;
78618;SDS011;67941;52.506;5.470;2023-11-21T06:32:57;0.98;;;0.40;;
78618;SDS011;67941;52.506;5.470;2023-11-21T06:35:28;2.92;;;0.85;;
78618;SDS011;67941;52.506;5.470;2023-11-21T06:38:00;4.20;;;0.55;;
78618;SDS011;67941;52.506;5.470;2023-11-21T06:40:28;3.03;;;0.77;;
78618;SDS011;67941;52.506;5.470;2023-11-21T06:42:59;4.10;;;1.17;;
78618;SDS011;67941;52.506;5.470;2023-11-21T06:45:27;1.52;;;0.77;;
78618;SDS011;67941;52.506;5.470;2023-11-21T06:47:56;2.97;;;0.65;;
78618;SDS011;67941;52.506;5.470;2023-11-21T06:50:25;8.10;;;1.80;;
78618;SDS011;67941;52.506;5.470;2023-11-21T06:52:56;4.65;;;1.33;;
78618;SDS011;67941;52.506;5.470;2023-11-21T06:55:28;3.42;;;0.80;;
78618;SDS011;67941;52.506;5.470;2023-11-21T07:00:41;1.92;;;0.43;;
78618;SDS011;67941;52.506;5.470;2023-11-21T07:03:12;4.10;;;1.30;;
78618;SDS011;67941;52.506;5.470;2023-11-21T07:05:41;3.05;;;0.70;;
78618;SDS011;67941;52.506;5.470;2023-11-21T07:08:12;3.92;;;1.10;;
78618;SDS011;67941;52.506;5.470;2023-11-21T07:10:41;3.08;;;1.40;;
78618;SDS011;67941;52.506;5.470;2023-11-21T07:13:10;6.05;;;0.93;;
78618;SDS011;67941;52.506;5.470;2023-11-21T07:15:39;2.17;;;0.70;;
78618;SDS011;67941;52.506;5.470;2023-11-21T07:18:08;4.20;;;1.30;;
78618;SDS011;67941;52.506;5.470;2023-11-21T07:20:37;6.45;;;2.30;;
78618;SDS011;67941;52.506;5.470;2023-11-21T07:23:06;3.95;;;1.02;;
78618;SDS011;67941;52.506;5.470;2023-11-21T07:25:38;3.45;;;1.02;;
78618;SDS011;67941;52.506;5.470;2023-11-21T07:28:10;1.95;;;0.40;;
78618;SDS011;67941;52.506;5.470;2023-11-21T07:30:39;5.10;;;1.17;;
78618;SDS011;67941;52.506;5.470;2023-11-21T07:33:08;3.28;;;1.00;;
78618;SDS011;67941;52.506;5.470;2023-11-21T07:35:37;4.50;;;1.05;;
78618;SDS011;67941;52.506;5.470;2023-11-21T07:38:05;2.97;;;0.63;;
78618;SDS011;67941;52.506;5.470;2023-11-21T07:40:34;3.25;;;0.80;;
78618;SDS011;67941;52.506;5.470;2023-11-21T07:43:06;1.88;;;0.40;;
78618;SDS011;67941;52.506;5.470;2023-11-21T07:45:36;3.25;;;0.40;;
78618;SDS011;67941;52.506;5.470;2023-11-21T07:48:05;2.85;;;0.60;;
78618;SDS011;67941;52.506;5.470;2023-11-21T07:50:33;1.42;;;0.32;;
78618;SDS011;67941;52.506;5.470;2023-11-21T07:53:03;3.97;;;0.80;;
78618;SDS011;67941;52.506;5.470;2023-11-21T07:55:31;3.22;;;1.00;;
78618;SDS011;67941;52.506;5.470;2023-11-21T07:58:04;3.15;;;0.70;;
78618;SDS011;67941;52.506;5.470;2023-11-21T08:00:33;4.30;;;1.20;;
78618;SDS011;67941;52.506;5.470;2023-11-21T08:03:03;2.63;;;0.52;;
78618;SDS011;67941;52.506;5.470;2023-11-21T08:05:31;2.55;;;0.88;;
78618;SDS011;67941;52.506;5.470;2023-11-21T08:08:00;3.60;;;1.20;;
78618;SDS011;67941;52.506;5.470;2023-11-21T08:10:29;2.58;;;0.63;;
78618;SDS011;67941;52.506;5.470;2023-11-21T08:12:58;4.32;;;1.05;;
78618;SDS011;67941;52.506;5.470;2023-11-21T08:15:29;1.23;;;0.40;;
78618;SDS011;67941;52.506;5.470;2023-11-21T08:17:59;3.28;;;0.80;;
78618;SDS011;67941;52.506;5.470;2023-11-21T08:20:28;2.22;;;0.70;;
78618;SDS011;67941;52.506;5.470;2023-11-21T08:22:58;3.92;;;1.00;;
78618;SDS011;67941;52.506;5.470;2023-11-21T08:25:28;2.63;;;0.65;;
78618;SDS011;67941;52.506;5.470;2023-11-21T08:27:57;2.53;;;0.68;;
78618;SDS011;67941;52.506;5.470;2023-11-21T08:30:26;3.08;;;0.63;;
78618;SDS011;67941;52.506;5.470;2023-11-21T08:32:58;2.05;;;0.60;;
78618;SDS011;67941;52.506;5.470;2023-11-21T08:35:28;4.00;;;0.93;;
78618;SDS011;67941;52.506;5.470;2023-11-21T08:37:57;1.92;;;0.43;;
78618;SDS011;67941;52.506;5.470;2023-11-21T08:40:26;3.33;;;1.08;;
78618;SDS011;67941;52.506;5.470;2023-11-21T08:42:55;3.53;;;0.80;;
78618;SDS011;67941;52.506;5.470;2023-11-21T08:45:24;3.90;;;1.23;;
78618;SDS011;67941;52.506;5.470;2023-11-21T08:47:56;5.57;;;1.95;;
78618;SDS011;67941;52.506;5.470;2023-11-21T08:50:24;6.43;;;1.33;;
78618;SDS011;67941;52.506;5.470;2023-11-21T08:52:53;3.75;;;0.95;;
78618;SDS011;67941;52.506;5.470;2023-11-21T08:55:22;3.72;;;1.15;;
78618;SDS011;67941;52.506;5.470;2023-11-21T08:57:51;3.80;;;1.00;;
78618;SDS011;67941;52.506;5.470;2023-11-21T09:00:20;6.45;;;1.70;;
78618;SDS011;67941;52.506;5.470;2023-11-21T09:02:49;8.23;;;1.92;;
78618;SDS011;67941;52.506;5.470;2023-11-21T09:05:20;5.95;;;1.48;;
78618;SDS011;67941;52.506;5.470;2023-11-21T09:07:49;5.25;;;1.65;;
78618;SDS011;67941;52.506;5.470;2023-11-21T09:10:18;6.18;;;1.50;;
78618;SDS011;67941;52.506;5.470;2023-11-21T09:12:48;7.00;;;2.08;;
78618;SDS011;67941;52.506;5.470;2023-11-21T09:15:17;6.18;;;1.77;;
78618;SDS011;67941;52.506;5.470;2023-11-21T09:17:46;6.75;;;1.83;;
78618;SDS011;67941;52.506;5.470;2023-11-21T09:20:15;9.05;;;1.60;;
78618;SDS011;67941;52.506;5.470;2023-11-21T09:22:46;7.30;;;2.25;;
78618;SDS011;67941;52.506;5.470;2023-11-21T09:25:15;4.40;;;1.10;;
78618;SDS011;67941;52.506;5.470;2023-11-21T09:27:45;5.75;;;1.35;;
78618;SDS011;67941;52.506;5.470;2023-11-21T09:30:14;3.88;;;1.40;;
78618;SDS011;67941;52.506;5.470;2023-11-21T09:32:43;7.88;;;1.60;;
78618;SDS011;67941;52.506;5.470;2023-11-21T09:35:13;10.23;;;2.65;;
78618;SDS011;67941;52.506;5.470;2023-11-21T09:37:45;8.02;;;2.03;;
78618;SDS011;67941;52.506;5.470;2023-11-21T09:40:15;7.75;;;1.60;;
78618;SDS011;67941;52.506;5.470;2023-11-21T09:42:49;6.75;;;1.92;;
78618;SDS011;67941;52.506;5.470;2023-11-21T09:45:27;4.72;;;0.98;;
78618;SDS011;67941;52.506;5.470;2023-11-21T09:47:57;10.85;;;2.63;;
78618;SDS011;67941;52.506;5.470;2023-11-21T09:50:26;10.13;;;3.58;;
78618;SDS011;67941;52.506;5.470;2023-11-21T09:53:02;7.15;;;2.42;;
78618;SDS011;67941;52.506;5.470;2023-11-21T09:55:41;7.30;;;2.45;;
78618;SDS011;67941;52.506;5.470;2023-11-21T09:58:11;10.20;;;3.08;;
78618;SDS011;67941;52.506;5.470;2023-11-21T10:00:42;5.38;;;1.02;;
78618;SDS011;67941;52.506;5.470;2023-11-21T10:03:12;7.82;;;2.33;;
78618;SDS011;67941;52.506;5.470;2023-11-21T10:05:42;6.07;;;1.67;;
78618;SDS011;67941;52.506;5.470;2023-11-21T10:08:14;8.05;;;1.83;;
78618;SDS011;67941;52.506;5.470;2023-11-21T10:10:44;6.32;;;1.42;;
78618;SDS011;67941;52.506;5.470;2023-11-21T10:13:14;6.05;;;1.33;;
78618;SDS011;67941;52.506;5.470;2023-11-21T10:15:45;7.07;;;1.77;;
78618;SDS011;67941;52.506;5.470;2023-11-21T10:18:18;8.68;;;3.15;;
78618;SDS011;67941;52.506;5.470;2023-11-21T10:20:48;6.80;;;1.52;;
78618;SDS011;67941;52.506;5.470;2023-11-21T10:23:35;6.22;;;1.77;;
78618;SDS011;67941;52.506;5.470;2023-11-21T10:26:04;6.03;;;1.20;;
78618;SDS011;67941;52.506;5.470;2023-11-21T10:28:35;7.63;;;2.00;;
78618;SDS011;67941;52.506;5.470;2023-11-21T10:31:06;7.55;;;1.63;;
78618;SDS011;67941;52.506;5.470;2023-11-21T10:33:37;4.90;;;0.73;;
78618;SDS011;67941;52.506;5.470;2023-11-21T10:36:06;5.95;;;2.08;;
78618;SDS011;67941;52.506;5.470;2023-11-21T10:38:44;7.30;;;2.22;;
78618;SDS011;67941;52.506;5.470;2023-11-21T10:41:16;4.72;;;1.40;;
78618;SDS011;67941;52.506;5.470;2023-11-21T10:43:46;4.00;;;1.27;;
78618;SDS011;67941;52.506;5.470;2023-11-21T10:46:15;4.72;;;1.10;;
78618;SDS011;67941;52.506;5.470;2023-11-21T10:48:44;3.80;;;0.75;;
78618;SDS011;67941;52.506;5.470;2023-11-21T10:51:13;4.15;;;1.02;;
78618;SDS011;67941;52.506;5.470;2023-11-21T10:53:47;2.72;;;0.63;;
78618;SDS011;67941;52.506;5.470;2023-11-21T10:56:16;6.75;;;1.73;;
78618;SDS011;67941;52.506;5.470;2023-11-21T10:58:47;3.67;;;0.85;;
78618;SDS011;67941;52.506;5.470;2023-11-21T11:01:17;3.40;;;1.10;;
78618;SDS011;67941;52.506;5.470;2023-11-21T11:03:47;1.58;;;0.40;;
78618;SDS011;67941;52.506;5.470;2023-11-21T11:06:19;6.70;;;1.63;;
78618;SDS011;67941;52.506;5.470;2023-11-21T11:08:54;6.40;;;1.10;;
78618;SDS011;67941;52.506;5.470;2023-11-21T11:11:23;3.55;;;1.00;;
78618;SDS011;67941;52.506;5.470;2023-11-21T11:13:53;5.65;;;1.10;;
78618;SDS011;67941;52.506;5.470;2023-11-21T11:16:22;3.28;;;1.13;;
78618;SDS011;67941;52.506;5.470;2023-11-21T11:18:52;4.18;;;0.80;;
78618;SDS011;67941;52.506;5.470;2023-11-21T11:21:26;2.88;;;0.80;;
78618;SDS011;67941;52.506;5.470;2023-11-21T11:24:17;2.92;;;0.60;;
78618;SDS011;67941;52.506;5.470;2023-11-21T11:26:56;4.22;;;1.08;;
78618;SDS011;67941;52.506;5.470;2023-11-21T11:29:31;6.88;;;2.03;;
78618;SDS011;67941;52.506;5.470;2023-11-21T11:32:08;4.70;;;0.88;;
78618;SDS011;67941;52.506;5.470;2023-11-21T11:34:47;5.65;;;1.55;;
78618;SDS011;67941;52.506;5.470;2023-11-21T11:37:22;5.05;;;1.35;;
78618;SDS011;67941;52.506;5.470;2023-11-21T11:39:53;5.88;;;1.65;;
78618;SDS011;67941;52.506;5.470;2023-11-21T11:42:23;5.20;;;1.50;;
78618;SDS011;67941;52.506;5.470;2023-11-21T11:44:52;6.35;;;1.63;;
78618;SDS011;67941;52.506;5.470;2023-11-21T11:47:23;5.50;;;1.05;;
78618;SDS011;67941;52.506;5.470;2023-11-21T11:49:58;3.75;;;0.73;;
78618;SDS011;67941;52.506;5.470;2023-11-21T11:52:35;5.45;;;1.63;;
78618;SDS011;67941;52.506;5.470;2023-11-21T11:55:09;5.32;;;1.65;;
78618;SDS011;67941;52.506;5.470;2023-11-21T11:57:40;6.15;;;1.63;;
78618;SDS011;67941;52.506;5.470;2023-11-21T12:00:13;4.00;;;0.90;;
78618;SDS011;67941;52.506;5.470;2023-11-21T12:02:45;4.05;;;1.05;;
78618;SDS011;67941;52.506;5.470;2023-11-21T12:05:16;6.82;;;1.80;;
78618;SDS011;67941;52.506;5.470;2023-11-21T12:07:47;5.60;;;1.90;;
78618;SDS011;67941;52.506;5.470;2023-11-21T12:10:22;7.07;;;2.33;;
78618;SDS011;67941;52.506;5.470;2023-11-21T12:12:54;6.47;;;1.88;;
78618;SDS011;67941;52.506;5.470;2023-11-21T12:15:24;7.13;;;1.65;;
78618;SDS011;67941;52.506;5.470;2023-11-21T12:17:54;7.32;;;1.70;;
78618;SDS011;67941;52.506;5.470;2023-11-21T12:20:25;5.97;;;1.60;;
78618;SDS011;67941;52.506;5.470;2023-11-21T12:22:55;8.48;;;2.25;;
78618;SDS011;67941;52.506;5.470;2023-11-21T12:25:28;5.82;;;1.80;;
78618;SDS011;67941;52.506;5.470;2023-11-21T12:27:59;8.13;;;2.63;;
78618;SDS011;67941;52.506;5.470;2023-11-21T12:30:30;7.57;;;2.28;;
78618;SDS011;67941;52.506;5.470;2023-11-21T12:33:01;7.60;;;2.55;;
78618;SDS011;67941;52.506;5.470;2023-11-21T12:35:33;5.95;;;2.00;;
78618;SDS011;67941;52.506;5.470;2023-11-21T12:38:03;7.55;;;2.22;;
78618;SDS011;67941;52.506;5.470;2023-11-21T12:40:36;4.00;;;1.30;;
78618;SDS011;67941;52.506;5.470;2023-11-21T12:43:06;4.10;;;1.30;;
78618;SDS011;67941;52.506;5.470;2023-11-21T12:45:36;7.20;;;1.95;;
78618;SDS011;67941;52.506;5.470;2023-11-21T12:48:05;7.10;;;2.13;;
78618;SDS011;67941;52.506;5.470;2023-11-21T12:50:36;7.10;;;2.85;;
78618;SDS011;67941;52.506;5.470;2023-11-21T12:53:07;7.10;;;2.05;;
78618;SDS011;67941;52.506;5.470;2023-11-21T12:55:40;6.50;;;2.00;;
78618;SDS011;67941;52.506;5.470;2023-11-21T12:58:15;5.80;;;2.00;;
78618;SDS011;67941;52.506;5.470;2023-11-21T13:00:46;3.33;;;0.70;;
78618;SDS011;67941;52.506;5.470;2023-11-21T13:03:17;7.80;;;2.20;;
78618;SDS011;67941;52.506;5.470;2023-11-21T13:05:51;3.80;;;0.90;;
78618;SDS011;67941;52.506;5.470;2023-11-21T13:08:23;8.60;;;2.90;;
78618;SDS011;67941;52.506;5.470;2023-11-21T13:10:58;6.50;;;1.70;;
78618;SDS011;67941;52.506;5.470;2023-11-21T13:13:29;3.15;;;0.73;;
78618;SDS011;67941;52.506;5.470;2023-11-21T13:15:59;6.03;;;1.70;;
78618;SDS011;67941;52.506;5.470;2023-11-21T13:18:29;7.43;;;2.42;;
78618;SDS011;67941;52.506;5.470;2023-11-21T13:21:00;6.65;;;2.33;;
78618;SDS011;67941;52.506;5.470;2023-11-21T13:23:35;7.60;;;2.53;;
78618;SDS011;67941;52.506;5.470;2023-11-21T13:26:08;6.57;;;2.17;;
78618;SDS011;67941;52.506;5.470;2023-11-21T13:28:37;6.30;;;2.03;;
78618;SDS011;67941;52.506;5.470;2023-11-21T13:31:11;5.63;;;1.88;;
78618;SDS011;67941;52.506;5.470;2023-11-21T13:33:46;6.50;;;2.30;;
78618;SDS011;67941;52.506;5.470;2023-11-21T13:36:20;6.32;;;2.15;;
78618;SDS011;67941;52.506;5.470;2023-11-21T13:38:49;5.63;;;1.65;;
78618;SDS011;67941;52.506;5.470;2023-11-21T13:41:21;5.45;;;1.52;;
78618;SDS011;67941;52.506;5.470;2023-11-21T13:43:55;7.25;;;2.30;;
78618;SDS011;67941;52.506;5.470;2023-11-21T13:46:41;8.13;;;2.67;;
78618;SDS011;67941;52.506;5.470;2023-11-21T13:49:11;7.20;;;2.50;;
78618;SDS011;67941;52.506;5.470;2023-11-21T13:51:40;6.75;;;2.03;;
78618;SDS011;67941;52.506;5.470;2023-11-21T13:54:10;6.55;;;2.80;;
78618;SDS011;67941;52.506;5.470;2023-11-21T13:56:42;8.98;;;3.70;;
78618;SDS011;67941;52.506;5.470;2023-11-21T13:59:11;8.30;;;3.38;;
78618;SDS011;67941;52.506;5.470;2023-11-21T14:01:46;7.53;;;2.45;;
78618;SDS011;67941;52.506;5.470;2023-11-21T14:04:25;4.25;;;1.27;;
78618;SDS011;67941;52.506;5.470;2023-11-21T14:07:15;6.15;;;2.50;;
78618;SDS011;67941;52.506;5.470;2023-11-21T14:09:57;4.03;;;1.35;;
78618;SDS011;67941;52.506;5.470;2023-11-21T14:12:28;7.38;;;2.63;;
78618;SDS011;67941;52.506;5.470;2023-11-21T14:15:01;6.82;;;2.00;;
78618;SDS011;67941;52.506;5.470;2023-11-21T14:17:32;7.00;;;2.25;;
78618;SDS011;67941;52.506;5.470;2023-11-21T14:20:04;4.10;;;1.55;;
78618;SDS011;67941;52.506;5.470;2023-11-21T14:22:40;5.35;;;2.53;;
78618;SDS011;67941;52.506;5.470;2023-11-21T14:25:09;6.13;;;2.10;;
78618;SDS011;67941;52.506;5.470;2023-11-21T14:27:42;6.20;;;2.15;;
78618;SDS011;67941;52.506;5.470;2023-11-21T14:30:11;7.10;;;2.58;;
78618;SDS011;67941;52.506;5.470;2023-11-21T14:32:44;4.15;;;1.60;;
78618;SDS011;67941;52.506;5.470;2023-11-21T14:35:13;6.03;;;2.33;;
78618;SDS011;67941;52.506;5.470;2023-11-21T14:37:42;3.88;;;1.63;;
78618;SDS011;67941;52.506;5.470;2023-11-21T14:40:12;7.68;;;3.05;;
78618;SDS011;67941;52.506;5.470;2023-11-21T14:42:44;8.00;;;2.85;;
78618;SDS011;67941;52.506;5.470;2023-11-21T14:45:13;6.18;;;2.63;;
78618;SDS011;67941;52.506;5.470;2023-11-21T14:47:45;6.18;;;2.40;;
78618;SDS011;67941;52.506;5.470;2023-11-21T14:50:22;5.47;;;2.17;;
78618;SDS011;67941;52.506;5.470;2023-11-21T14:53:18;6.75;;;2.22;;
78618;SDS011;67941;52.506;5.470;2023-11-21T14:56:08;5.78;;;2.20;;
78618;SDS011;67941;52.506;5.470;2023-11-21T14:58:38;6.35;;;2.15;;
78618;SDS011;67941;52.506;5.470;2023-11-21T15:01:07;5.50;;;1.80;;
78618;SDS011;67941;52.506;5.470;2023-11-21T15:03:38;5.32;;;2.17;;
78618;SDS011;67941;52.506;5.470;2023-11-21T15:06:15;6.65;;;2.30;;
78618;SDS011;67941;52.506;5.470;2023-11-21T15:08:48;5.88;;;2.40;;
78618;SDS011;67941;52.506;5.470;2023-11-21T15:11:25;5.53;;;2.17;;
78618;SDS011;67941;52.506;5.470;2023-11-21T15:13:58;5.97;;;2.08;;
78618;SDS011;67941;52.506;5.470;2023-11-21T15:16:32;2.95;;;1.20;;
78618;SDS011;67941;52.506;5.470;2023-11-21T15:19:04;4.47;;;1.52;;